Time;durP1;ratioP1;P1;durP2;ratioP2;P2;SDS_P1;SDS_P2;PMS_P1;PMS_P2;Temp;Humidity;BMP_temperature;BMP_pressure;BME280_temperature;BME280_humidity;BME280_pressure;Samples;Min_cycle;Max_cycle;Signal;HPM_P1;HPM_P2
2021/12/31 00:00:36;;;;;;;5.37;5.07;;;;;;;9.37;79.88;100128.75;4993041;28;20194;-72
2021/12/31 00:03:03;;;;;;;6.03;5.53;;;;;;;9.19;80.64;100122.88;4993421;28;20194;-71
2021/12/31 00:05:30;;;;;;;5.57;5.07;;;;;;;9.18;81.16;100115.91;4992934;28;20273;-72
2021/12/31 00:07:57;;;;;;;8.97;5.60;;;;;;;9.10;80.97;100118.56;4993717;28;20198;-74
2021/12/31 00:10:24;;;;;;;6.33;5.83;;;;;;;9.05;81.05;100121.75;4992816;28;20230;-72
2021/12/31 00:12:52;;;;;;;6.00;5.40;;;;;;;9.16;81.33;100133.81;4993153;28;20289;-72
2021/12/31 00:15:18;;;;;;;6.10;5.60;;;;;;;9.30;81.43;100141.03;4993244;28;20223;-72
2021/12/31 00:17:46;;;;;;;7.23;6.53;;;;;;;9.20;80.80;100135.13;4992480;28;20725;-72
2021/12/31 00:20:16;;;;;;;6.53;5.83;;;;;;;9.10;81.26;100129.16;4993249;28;20198;-72
2021/12/31 00:23:02;;;;;;;6.30;5.80;;;;;;;9.18;81.32;100140.59;4992800;28;20195;-72
2021/12/31 00:25:29;;;;;;;6.57;6.00;;;;;;;9.12;82.24;100130.69;4992962;28;20190;-71
2021/12/31 00:27:57;;;;;;;6.30;5.77;;;;;;;9.07;81.98;100134.84;4992750;28;20198;-73
2021/12/31 00:30:24;;;;;;;6.30;5.80;;;;;;;8.91;82.80;100126.94;4992689;28;20230;-73
2021/12/31 00:32:50;;;;;;;6.80;5.97;;;;;;;8.77;83.31;100119.66;4993121;28;20226;-71
2021/12/31 00:35:17;;;;;;;7.00;6.40;;;;;;;8.79;83.80;100118.50;4992741;28;20195;-72
2021/12/31 00:37:44;;;;;;;6.03;5.63;;;;;;;8.83;83.81;100126.97;4993612;28;20199;-71
2021/12/31 00:40:13;;;;;;;7.03;6.53;;;;;;;8.77;84.41;100127.63;4993163;28;20562;-72
2021/12/31 00:42:40;;;;;;;7.30;6.60;;;;;;;8.69;84.84;100127.63;4993092;28;20253;-71
2021/12/31 00:45:11;;;;;;;7.10;6.50;;;;;;;8.63;84.28;100126.50;4992736;28;20198;-73
2021/12/31 00:47:38;;;;;;;7.37;6.70;;;;;;;8.50;85.53;100125.38;4993351;28;20209;-72
2021/12/31 00:50:06;;;;;;;6.70;6.20;;;;;;;8.56;85.69;100129.97;4993174;28;20198;-71
2021/12/31 00:52:32;;;;;;;7.37;6.60;;;;;;;8.51;85.13;100127.00;4993167;28;20190;-72
2021/12/31 00:54:59;;;;;;;7.37;6.57;;;;;;;8.70;84.32;100124.81;4993302;28;20202;-71
2021/12/31 00:57:26;;;;;;;7.13;6.50;;;;;;;8.77;84.49;100119.66;4992550;28;20195;-71
2021/12/31 00:59:52;;;;;;;7.10;6.60;;;;;;;8.76;84.13;100115.38;4993075;28;20199;-72
2021/12/31 01:02:22;;;;;;;8.13;6.73;;;;;;;8.70;84.50;100110.78;4992660;28;20261;-72
2021/12/31 01:04:49;;;;;;;7.27;6.67;;;;;;;8.65;85.33;100107.78;4992961;28;20237;-72
2021/12/31 01:07:16;;;;;;;7.67;7.07;;;;;;;8.80;84.09;100116.69;4992372;28;20682;-71
2021/12/31 01:09:42;;;;;;;8.00;6.60;;;;;;;8.89;84.56;100110.38;4992665;28;20682;-71
2021/12/31 01:12:12;;;;;;;7.83;6.60;;;;;;;8.99;84.40;100108.38;4992776;28;20578;-72
2021/12/31 01:14:43;;;;;;;6.53;6.03;;;;;;;9.03;84.05;100099.06;4992069;28;20231;-71
2021/12/31 01:17:14;;;;;;;7.33;6.77;;;;;;;9.08;83.50;100091.44;4992894;28;20654;-71
2021/12/31 01:19:45;;;;;;;6.70;6.30;;;;;;;9.01;83.26;100091.28;4992647;28;20197;-71
2021/12/31 01:22:12;;;;;;;7.73;6.83;;;;;;;8.94;83.78;100086.88;4992638;28;20225;-71
2021/12/31 01:24:39;;;;;;;7.27;6.67;;;;;;;8.98;83.67;100081.03;4992120;28;20686;-71
2021/12/31 01:27:06;;;;;;;6.83;6.23;;;;;;;9.00;84.10;100086.16;4991154;28;20682;-72
2021/12/31 01:29:32;;;;;;;7.00;6.50;;;;;;;8.98;84.07;100088.16;4992204;28;20194;-71
2021/12/31 01:31:59;;;;;;;6.57;6.17;;;;;;;8.92;84.26;100080.91;4992206;28;20238;-71
2021/12/31 01:34:26;;;;;;;6.67;6.07;;;;;;;8.96;84.62;100090.16;4992804;28;20281;-73
2021/12/31 01:36:54;;;;;;;7.27;6.63;;;;;;;8.93;84.76;100082.53;4992417;28;20253;-73
2021/12/31 01:39:21;;;;;;;6.17;5.77;;;;;;;8.91;84.24;100079.25;4992322;28;20725;-71
2021/12/31 01:41:47;;;;;;;7.63;6.90;;;;;;;8.84;84.33;100081.75;4991978;28;20195;-71
2021/12/31 01:44:14;;;;;;;6.40;5.90;;;;;;;8.77;84.08;100074.66;4992913;28;20198;-71
2021/12/31 01:46:54;;;;;;;6.60;6.10;;;;;;;8.68;84.54;100083.63;4992111;28;20659;-70
2021/12/31 01:49:22;;;;;;;7.30;6.60;;;;;;;8.64;85.98;100074.34;4993687;28;20191;-71
2021/12/31 01:51:49;;;;;;;8.27;7.00;;;;;;;8.55;85.42;100086.81;4992618;28;20194;-71
2021/12/31 01:54:17;;;;;;;6.13;5.63;;;;;;;8.43;86.53;100085.50;4992440;28;20285;-70
2021/12/31 01:56:44;;;;;;;6.83;6.10;;;;;;;8.39;86.76;100070.09;4993053;28;20202;-71
2021/12/31 01:59:12;;;;;;;9.00;6.30;;;;;;;8.35;86.15;100074.09;4991946;28;20195;-73
2021/12/31 02:01:39;;;;;;;6.60;6.20;;;;;;;8.14;87.42;100073.75;4992566;28;20191;-71
2021/12/31 02:04:06;;;;;;;7.20;5.83;;;;;;;8.05;87.85;100080.03;4992448;28;20203;-71
2021/12/31 02:06:33;;;;;;;6.90;6.30;;;;;;;7.91;88.49;100076.22;4992684;28;20254;-71
2021/12/31 02:09:02;;;;;;;6.37;5.77;;;;;;;8.02;88.30;100075.91;4994667;28;20258;-71
2021/12/31 02:11:30;;;;;;;6.53;6.03;;;;;;;8.13;87.81;100069.44;4996428;28;20202;-71
2021/12/31 02:13:57;;;;;;;6.30;5.73;;;;;;;8.23;87.62;100070.13;4995869;28;20698;-71
2021/12/31 02:16:24;;;;;;;6.33;5.83;;;;;;;8.29;86.34;100066.81;4995652;28;20228;-71
2021/12/31 02:18:51;;;;;;;6.50;5.90;;;;;;;8.32;86.58;100067.31;4995774;28;20195;-70
2021/12/31 02:21:20;;;;;;;6.23;5.73;;;;;;;8.34;86.84;100057.38;4995819;28;20216;-70
2021/12/31 02:23:52;;;;;;;7.37;6.17;;;;;;;8.38;86.01;100057.88;4995820;28;20203;-70
2021/12/31 02:26:19;;;;;;;6.80;6.30;;;;;;;8.42;85.76;100060.00;4995873;28;20191;-72
2021/12/31 02:28:45;;;;;;;7.30;5.83;;;;;;;8.42;85.50;100062.66;4995899;28;20203;-72
2021/12/31 02:31:12;;;;;;;5.93;5.60;;;;;;;8.42;85.28;100061.84;4996082;28;20273;-71
2021/12/31 02:33:40;;;;;;;6.37;5.83;;;;;;;8.41;84.47;100068.94;4995668;28;20261;-72
2021/12/31 02:36:07;;;;;;;6.30;5.90;;;;;;;8.36;84.78;100075.72;4996054;28;20625;-71
2021/12/31 02:38:36;;;;;;;6.90;6.40;;;;;;;8.36;85.99;100086.31;4980025;28;20589;-72
2021/12/31 02:41:03;;;;;;;6.77;6.03;;;;;;;8.32;85.36;100090.28;4975367;28;20195;-71
2021/12/31 02:43:30;;;;;;;7.33;6.73;;;;;;;8.23;86.47;100091.28;4975660;28;20246;-72
2021/12/31 02:45:56;;;;;;;8.87;8.07;;;;;;;8.23;86.08;100109.81;4975584;28;20631;-71
2021/12/31 02:48:25;;;;;;;6.83;6.23;;;;;;;8.21;86.33;100119.75;4976161;28;20258;-72
2021/12/31 02:50:55;;;;;;;8.00;6.70;;;;;;;8.21;85.85;100119.75;4975590;28;20659;-71
2021/12/31 02:53:26;;;;;;;7.97;7.27;;;;;;;8.22;86.08;100126.69;4975800;28;20663;-72
2021/12/31 02:56:03;;;;;;;8.60;7.90;;;;;;;8.19;85.75;100127.00;4975435;28;20187;-71
2021/12/31 02:58:31;;;;;;;8.37;7.70;;;;;;;8.13;85.21;100132.94;4976052;28;20191;-71
2021/12/31 03:00:59;;;;;;;6.90;6.40;;;;;;;8.04;86.38;100115.44;4975500;28;20195;-71
2021/12/31 03:03:26;;;;;;;6.67;6.20;;;;;;;7.97;86.73;100111.78;4975638;28;20732;-71
2021/12/31 03:05:54;;;;;;;7.70;7.20;;;;;;;7.93;87.18;100115.75;4975215;28;20667;-71
2021/12/31 03:08:24;;;;;;;7.10;6.50;;;;;;;7.83;87.12;100128.28;4976627;28;20279;-71
2021/12/31 03:10:53;;;;;;;7.30;6.63;;;;;;;7.71;87.71;100121.63;4975597;28;20195;-71
2021/12/31 03:13:22;;;;;;;8.23;7.33;;;;;;;7.64;88.47;100115.38;4975333;28;20195;-72
2021/12/31 03:15:50;;;;;;;9.00;8.17;;;;;;;7.63;88.50;100124.28;4975229;28;20199;-71
2021/12/31 03:18:19;;;;;;;8.63;7.93;;;;;;;7.52;88.46;100137.81;4975064;28;20199;-71
2021/12/31 03:20:57;;;;;;;7.67;7.17;;;;;;;7.41;88.96;100140.72;4975431;28;20195;-71
2021/12/31 03:23:24;;;;;;;7.13;6.63;;;;;;;7.46;88.43;100149.00;4975006;28;20295;-71
2021/12/31 03:25:51;;;;;;;7.47;6.87;;;;;;;7.41;88.46;100141.56;4975146;28;20222;-71
2021/12/31 03:28:18;;;;;;;7.57;6.97;;;;;;;7.17;89.22;100143.28;4975470;28;20246;-72
2021/12/31 03:30:46;;;;;;;7.90;7.30;;;;;;;6.77;90.74;100124.59;4974782;28;20321;-72
2021/12/31 03:33:13;;;;;;;7.27;6.77;;;;;;;6.81;91.70;100150.53;4975111;28;20257;-71
2021/12/31 03:35:40;;;;;;;8.40;7.80;;;;;;;6.73;92.75;100154.94;4974529;28;20228;-71
2021/12/31 03:38:07;;;;;;;9.13;7.93;;;;;;;6.53;93.28;100154.28;4975039;28;20195;-73
2021/12/31 03:40:33;;;;;;;8.43;7.77;;;;;;;6.45;93.57;100166.59;4974202;28;20218;-72
2021/12/31 03:43:01;;;;;;;8.40;7.60;;;;;;;6.37;94.49;100158.63;4974641;28;20197;-72
2021/12/31 03:45:28;;;;;;;15.33;10.50;;;;;;;6.28;95.30;100155.09;4974764;28;20199;-73
2021/12/31 03:47:56;;;;;;;11.47;10.57;;;;;;;6.23;95.63;100152.09;4974485;28;20250;-72
2021/12/31 03:50:23;;;;;;;8.60;8.00;;;;;;;6.22;95.89;100166.25;4975680;28;20191;-72
2021/12/31 03:52:49;;;;;;;8.17;7.47;;;;;;;6.17;95.89;100152.72;4974672;28;20253;-72
2021/12/31 03:55:16;;;;;;;8.67;8.00;;;;;;;6.23;95.79;100169.72;4975227;28;20225;-72
2021/12/31 03:57:43;;;;;;;8.87;8.10;;;;;;;6.19;96.48;100165.72;4974304;28;20661;-72
2021/12/31 04:00:11;;;;;;;7.67;7.13;;;;;;;6.18;96.09;100178.09;4975122;28;20250;-72
2021/12/31 04:02:38;;;;;;;8.20;7.60;;;;;;;6.17;96.42;100178.25;4974067;28;20199;-73
2021/12/31 04:05:07;;;;;;;7.43;6.93;;;;;;;6.13;96.46;100177.72;4975004;28;20234;-72
2021/12/31 04:07:34;;;;;;;7.40;6.90;;;;;;;6.14;96.51;100178.53;4974726;28;20262;-72
2021/12/31 04:10:01;;;;;;;7.87;7.17;;;;;;;6.16;96.14;100181.88;4974118;28;20195;-72
2021/12/31 04:12:27;;;;;;;8.20;7.50;;;;;;;6.15;96.39;100175.75;4974487;28;20196;-72
2021/12/31 04:14:54;;;;;;;6.83;6.40;;;;;;;6.21;96.63;100172.50;4973824;28;20223;-72
2021/12/31 04:17:21;;;;;;;7.20;6.70;;;;;;;6.19;96.56;100160.44;4974153;28;20675;-72
2021/12/31 04:19:51;;;;;;;7.30;6.80;;;;;;;6.21;96.17;100161.94;4973627;28;20577;-72
2021/12/31 04:22:23;;;;;;;7.73;7.03;;;;;;;6.23;96.28;100167.06;4975460;28;20188;-72
2021/12/31 04:24:53;;;;;;;7.23;6.63;;;;;;;6.23;96.15;100172.34;4974605;28;20188;-72
2021/12/31 04:27:21;;;;;;;6.60;6.13;;;;;;;6.24;95.89;100168.75;4973772;28;20548;-72
2021/12/31 04:29:52;;;;;;;7.33;6.83;;;;;;;6.17;96.38;100176.44;4973978;28;20199;-73
2021/12/31 04:32:21;;;;;;;7.80;7.03;;;;;;;6.28;95.69;100186.75;4973246;28;20277;-74
2021/12/31 04:34:48;;;;;;;7.50;6.90;;;;;;;6.33;95.25;100186.31;4973894;28;20613;-72
2021/12/31 04:37:15;;;;;;;7.53;6.93;;;;;;;6.35;95.10;100192.25;4973219;28;20667;-72
2021/12/31 04:39:43;;;;;;;7.23;6.73;;;;;;;6.35;95.61;100186.97;4974012;28;20232;-74
2021/12/31 04:42:10;;;;;;;7.43;6.73;;;;;;;6.39;95.85;100204.16;4973577;28;20203;-72
2021/12/31 04:44:37;;;;;;;7.30;6.70;;;;;;;6.36;95.38;100193.91;4974119;28;20202;-72
2021/12/31 04:47:04;;;;;;;7.67;6.97;;;;;;;6.33;95.72;100188.94;4974039;28;20203;-74
2021/12/31 04:49:31;;;;;;;7.77;7.23;;;;;;;6.35;95.57;100203.63;4973606;28;20261;-71
2021/12/31 04:51:58;;;;;;;6.93;6.27;;;;;;;6.33;95.53;100205.56;4974166;28;20198;-72
2021/12/31 04:54:25;;;;;;;7.07;6.57;;;;;;;6.40;94.80;100192.63;4973563;28;20219;-72
2021/12/31 04:56:53;;;;;;;7.37;6.77;;;;;;;6.35;95.37;100197.50;4973570;28;20664;-72
2021/12/31 04:59:20;;;;;;;7.13;6.53;;;;;;;6.31;95.00;100206.72;4973533;28;20207;-72
2021/12/31 05:01:48;;;;;;;7.30;6.73;;;;;;;6.31;95.73;100212.00;4973944;28;20199;-71
2021/12/31 05:04:15;;;;;;;6.97;6.47;;;;;;;6.40;95.08;100211.91;4973633;28;20199;-71
2021/12/31 05:06:42;;;;;;;7.30;6.80;;;;;;;6.42;94.51;100207.31;4973256;28;20254;-71
2021/12/31 05:09:09;;;;;;;7.60;7.00;;;;;;;6.45;94.55;100212.28;4973394;28;20667;-72
2021/12/31 05:11:36;;;;;;;7.90;7.20;;;;;;;6.40;94.82;100211.09;4973752;28;20195;-72
2021/12/31 05:14:05;;;;;;;7.73;7.13;;;;;;;6.47;94.69;100212.13;4974171;28;20195;-72
2021/12/31 05:16:32;;;;;;;7.50;6.87;;;;;;;6.45;94.95;100208.84;4973575;28;20200;-72
2021/12/31 05:18:59;;;;;;;8.60;7.80;;;;;;;6.43;95.20;100213.41;4973292;28;20559;-71
2021/12/31 05:21:25;;;;;;;7.70;7.00;;;;;;;6.49;94.84;100226.00;4973720;28;20195;-71
2021/12/31 05:23:52;;;;;;;7.97;7.37;;;;;;;6.50;94.75;100227.66;4973803;28;20203;-72
2021/12/31 05:26:19;;;;;;;7.40;6.80;;;;;;;6.49;94.30;100223.38;4973469;28;20203;-72
2021/12/31 05:28:45;;;;;;;7.13;6.53;;;;;;;6.42;95.04;100228.44;4973036;28;20197;-72
2021/12/31 05:31:13;;;;;;;8.03;7.23;;;;;;;6.37;95.76;100227.22;4973526;28;20292;-72
2021/12/31 05:33:40;;;;;;;8.23;7.60;;;;;;;6.33;95.53;100221.41;4973132;28;20253;-72
2021/12/31 05:36:07;;;;;;;8.43;7.73;;;;;;;6.37;95.26;100216.69;4973521;28;20289;-72
2021/12/31 05:38:33;;;;;;;8.10;7.37;;;;;;;6.35;95.11;100202.78;4972986;28;20199;-73
2021/12/31 05:41:00;;;;;;;8.60;7.90;;;;;;;6.30;95.90;100205.06;4973617;28;20195;-72
2021/12/31 05:43:27;;;;;;;7.77;7.17;;;;;;;6.29;95.80;100200.78;4974658;28;20199;-78
2021/12/31 05:45:54;;;;;;;8.47;7.77;;;;;;;6.27;95.33;100194.81;4977511;28;20200;-74
2021/12/31 05:48:22;;;;;;;8.10;7.53;;;;;;;6.25;95.77;100202.06;4977256;28;20274;-76
2021/12/31 05:50:49;;;;;;;8.67;7.87;;;;;;;6.22;96.24;100207.63;4977615;28;20199;-76
2021/12/31 05:53:15;;;;;;;9.83;8.50;;;;;;;6.20;96.20;100209.59;4977471;28;20208;-77
2021/12/31 05:55:42;;;;;;;9.73;8.73;;;;;;;6.24;96.35;100200.41;4976418;28;20223;-75
2021/12/31 05:58:09;;;;;;;8.90;8.20;;;;;;;6.31;95.57;100204.06;4976060;28;20253;-76
2021/12/31 06:00:35;;;;;;;8.83;8.03;;;;;;;6.25;95.59;100205.50;4976350;28;20273;-76
2021/12/31 06:03:02;;;;;;;9.03;8.27;;;;;;;6.41;95.32;100202.19;4976777;28;20191;-76
2021/12/31 06:05:30;;;;;;;9.83;8.83;;;;;;;6.55;94.82;100205.13;4975924;28;20198;-76
2021/12/31 06:07:58;;;;;;;10.47;9.53;;;;;;;6.53;94.49;100207.06;4976192;28;20195;-76
2021/12/31 06:10:25;;;;;;;12.13;10.87;;;;;;;6.58;94.05;100198.69;4976180;28;20199;-79
2021/12/31 06:12:56;;;;;;;14.17;11.33;;;;;;;6.74;92.97;100194.34;4975714;28;20197;-80
2021/12/31 06:15:23;;;;;;;14.80;13.13;;;;;;;6.77;93.26;100187.97;4976825;28;20302;-79
2021/12/31 06:17:50;;;;;;;17.87;13.23;;;;;;;6.76;92.33;100192.41;4976324;28;20198;-79
2021/12/31 06:20:17;;;;;;;18.07;14.20;;;;;;;6.78;92.76;100186.97;4976630;28;20251;-77
2021/12/31 06:22:46;;;;;;;12.27;10.97;;;;;;;6.91;91.94;100185.59;4975097;28;20198;-77
2021/12/31 06:25:13;;;;;;;12.50;11.40;;;;;;;7.04;91.68;100196.56;4976566;28;20254;-77
2021/12/31 06:27:40;;;;;;;10.63;9.63;;;;;;;7.20;89.90;100201.94;4976098;28;20249;-79
2021/12/31 06:30:08;;;;;;;13.17;11.67;;;;;;;7.19;90.46;100204.72;4975678;28;20277;-75
2021/12/31 06:32:34;;;;;;;14.30;12.80;;;;;;;7.27;90.45;100212.69;4972419;28;20739;-74
2021/12/31 06:35:01;;;;;;;11.90;10.80;;;;;;;7.36;89.24;100212.56;4967862;28;20293;-73
2021/12/31 06:37:28;;;;;;;11.83;9.60;;;;;;;7.53;88.88;100208.19;4962362;28;20194;-75
2021/12/31 06:40:01;;;;;;;8.17;7.47;;;;;;;7.63;90.94;100208.91;4955755;28;20675;-69
2021/12/31 06:42:27;;;;;;;9.93;9.03;;;;;;;7.86;88.89;100205.50;4976809;28;20187;-76
2021/12/31 06:44:54;;;;;;;10.63;9.07;;;;;;;7.79;86.44;100224.78;4973597;28;20227;-75
2021/12/31 06:47:21;;;;;;;10.60;8.13;;;;;;;7.98;86.73;100235.09;4976064;28;20618;-74
2021/12/31 06:49:47;;;;;;;9.67;8.73;;;;;;;8.04;86.01;100223.91;4975779;28;20246;-68
2021/12/31 06:52:14;;;;;;;9.47;8.63;;;;;;;7.88;86.93;100215.91;4975096;28;20219;-71
2021/12/31 06:54:41;;;;;;;9.37;8.57;;;;;;;7.98;86.38;100235.09;4975133;28;20195;-73
2021/12/31 06:57:09;;;;;;;10.37;9.03;;;;;;;8.03;86.26;100232.78;4975114;28;20683;-72
2021/12/31 06:59:35;;;;;;;9.67;8.67;;;;;;;8.13;86.38;100239.59;4975613;28;20626;-73
2021/12/31 07:02:02;;;;;;;8.40;7.60;;;;;;;8.19;86.53;100254.00;4974859;28;20200;-72
2021/12/31 07:04:29;;;;;;;10.37;9.47;;;;;;;8.28;85.59;100258.34;4975640;28;20663;-71
2021/12/31 07:06:56;;;;;;;9.50;8.73;;;;;;;8.27;85.98;100262.00;4975142;28;20257;-75
2021/12/31 07:09:22;;;;;;;9.63;8.93;;;;;;;8.32;85.77;100264.97;4975112;28;20722;-76
2021/12/31 07:11:50;;;;;;;12.70;8.47;;;;;;;8.31;84.91;100263.31;4975165;28;20234;-74
2021/12/31 07:14:18;;;;;;;8.00;7.50;;;;;;;8.35;85.52;100267.31;4974992;28;20254;-70
2021/12/31 07:16:44;;;;;;;7.50;6.90;;;;;;;8.96;92.85;100265.03;4975327;28;20227;-73
2021/12/31 07:19:11;;;;;;;9.70;8.90;;;;;;;9.75;81.72;100281.75;4975105;28;20199;-73
2021/12/31 07:21:38;;;;;;;7.57;7.07;;;;;;;9.75;79.64;100284.38;4975544;28;20191;-68
2021/12/31 07:24:05;;;;;;;8.57;7.87;;;;;;;9.67;80.22;100282.59;4974982;28;20266;-69
2021/12/31 07:26:32;;;;;;;7.50;7.00;;;;;;;9.46;79.95;100276.19;4974588;28;20257;-70
2021/12/31 07:28:58;;;;;;;6.47;6.07;;;;;;;9.43;80.75;100287.13;4974652;28;20191;-69
2021/12/31 07:31:26;;;;;;;6.93;6.33;;;;;;;9.63;80.02;100288.41;4974552;28;20227;-71
2021/12/31 07:33:53;;;;;;;7.23;6.63;;;;;;;9.48;79.72;100282.16;4973624;28;20258;-71
2021/12/31 07:36:20;;;;;;;6.57;6.10;;;;;;;9.57;79.70;100286.44;4973518;28;20273;-69
2021/12/31 07:38:55;;;;;;;7.33;6.73;;;;;;;9.49;80.06;100289.13;4974024;28;20250;-73
2021/12/31 07:41:21;;;;;;;7.80;7.20;;;;;;;9.69;79.55;100298.34;4974127;28;20254;-76
2021/12/31 07:43:48;;;;;;;7.83;7.03;;;;;;;9.77;78.88;100293.81;4973589;28;20195;-73
2021/12/31 07:46:15;;;;;;;7.03;6.50;;;;;;;10.05;79.88;100299.56;4973348;28;20671;-77
2021/12/31 07:48:43;;;;;;;10.23;8.03;;;;;;;10.56;76.50;100298.94;4973664;28;20261;-78
2021/12/31 07:51:10;;;;;;;8.03;5.73;;;;;;;10.95;72.19;100312.94;4990232;28;20206;-73
2021/12/31 07:53:37;;;;;;;5.97;5.57;;;;;;;11.07;71.88;100310.69;4973728;28;20199;-75
2021/12/31 07:56:04;;;;;;;6.40;5.90;;;;;;;11.22;70.50;100315.03;4974089;28;20281;-74
2021/12/31 07:58:31;;;;;;;6.80;6.30;;;;;;;11.42;70.53;100321.50;4968570;28;20258;-70
2021/12/31 08:00:57;;;;;;;7.10;6.60;;;;;;;11.60;69.93;100319.34;4974312;28;20197;-69
2021/12/31 08:03:24;;;;;;;8.17;7.47;;;;;;;11.66;70.60;100307.97;4983374;28;20199;-70
2021/12/31 08:05:52;;;;;;;8.30;7.50;;;;;;;11.54;69.31;100311.22;4991214;28;20272;-71
2021/12/31 08:08:19;;;;;;;8.03;7.30;;;;;;;11.29;71.23;100300.00;4990058;28;20668;-71
2021/12/31 08:10:47;;;;;;;8.63;7.70;;;;;;;11.13;71.57;100305.47;4971973;28;20287;-69
2021/12/31 08:13:14;;;;;;;9.93;8.00;;;;;;;11.18;71.51;100308.41;4972160;28;20579;-68
2021/12/31 08:15:41;;;;;;;8.90;8.10;;;;;;;11.08;71.83;100302.53;4971850;28;20681;-70
2021/12/31 08:18:07;;;;;;;7.13;6.60;;;;;;;10.94;72.12;100300.66;4972157;28;20227;-71
2021/12/31 08:20:35;;;;;;;8.10;7.40;;;;;;;10.76;73.18;100297.47;4971898;28;20196;-70
2021/12/31 08:23:09;;;;;;;8.50;7.77;;;;;;;10.93;72.69;100315.78;4971911;28;20202;-70
2021/12/31 08:25:36;;;;;;;7.47;6.80;;;;;;;10.98;72.77;100308.09;4971792;28;20573;-71
2021/12/31 08:28:03;;;;;;;8.17;7.40;;;;;;;11.03;72.74;100312.88;4971701;28;20258;-70
2021/12/31 08:30:30;;;;;;;6.80;6.30;;;;;;;11.13;72.73;100312.63;4971563;28;20659;-70
2021/12/31 08:32:57;;;;;;;8.00;6.23;;;;;;;11.24;71.51;100312.19;4971586;28;20197;-71
2021/12/31 08:35:24;;;;;;;5.40;5.00;;;;;;;11.26;71.00;100321.63;4971791;28;20228;-70
2021/12/31 08:37:51;;;;;;;6.37;5.27;;;;;;;11.27;70.14;100307.34;4971881;28;20282;-70
2021/12/31 08:40:20;;;;;;;5.23;4.83;;;;;;;11.11;70.64;100304.81;4972042;28;20277;-70
2021/12/31 08:42:47;;;;;;;5.70;5.27;;;;;;;11.12;70.84;100295.84;4971719;28;20191;-73
2021/12/31 08:45:14;;;;;;;7.10;6.27;;;;;;;11.11;71.06;100302.16;4972231;28;20200;-71
2021/12/31 08:47:41;;;;;;;7.07;6.43;;;;;;;10.94;71.85;100300.66;4972584;28;20251;-68
2021/12/31 08:50:08;;;;;;;6.03;5.43;;;;;;;11.03;72.08;100299.59;4972029;28;20191;-70
2021/12/31 08:52:35;;;;;;;5.57;5.27;;;;;;;11.27;71.26;100301.19;4956897;28;20199;-69
2021/12/31 08:55:01;;;;;;;8.87;6.03;;;;;;;11.40;74.73;100293.41;4952803;28;20809;-68
2021/12/31 08:57:29;;;;;;;8.57;7.00;;;;;;;11.90;70.32;100298.88;4952951;28;20235;-73
2021/12/31 08:59:56;;;;;;;6.60;6.00;;;;;;;12.04;68.26;100295.41;4957072;28;20649;-75
2021/12/31 09:02:23;;;;;;;8.00;7.20;;;;;;;12.35;68.31;100288.81;4972272;28;20260;-73
2021/12/31 09:04:50;;;;;;;6.67;6.17;;;;;;;12.76;65.95;100297.84;4972666;28;20201;-73
2021/12/31 09:07:16;;;;;;;6.13;5.53;;;;;;;12.80;65.08;100298.28;4969856;28;20209;-75
2021/12/31 09:09:43;;;;;;;6.63;5.83;;;;;;;13.22;65.26;100296.44;4967840;28;20852;-72
2021/12/31 09:12:10;;;;;;;8.67;6.00;;;;;;;13.06;64.09;100283.38;4971923;28;20197;-74
2021/12/31 09:14:38;;;;;;;6.70;6.10;;;;;;;13.38;63.42;100272.13;4972033;28;20196;-74
2021/12/31 09:17:05;;;;;;;4.70;4.37;;;;;;;13.04;63.63;100269.41;4973989;28;20647;-69
2021/12/31 09:19:32;;;;;;;6.17;5.67;;;;;;;12.97;64.10;100263.19;4978192;28;20189;-75
2021/12/31 09:21:58;;;;;;;8.93;6.33;;;;;;;13.19;63.77;100264.81;4978729;28;20193;-72
2021/12/31 09:24:25;;;;;;;20.30;6.00;;;;;;;13.49;62.72;100260.09;4982658;28;20658;-72
2021/12/31 09:26:52;;;;;;;14.47;6.17;;;;;;;13.63;62.23;100256.47;4993357;28;20265;-72
2021/12/31 09:29:21;;;;;;;5.30;4.80;;;;;;;13.75;61.94;100249.56;4979412;28;20194;-71
2021/12/31 09:31:49;;;;;;;7.00;6.40;;;;;;;13.93;61.13;100244.53;4978829;28;20619;-69
2021/12/31 09:34:16;;;;;;;6.20;5.80;;;;;;;14.45;72.66;100213.44;4979195;28;20195;-77
2021/12/31 09:36:43;;;;;;;5.33;4.93;;;;;;;14.76;60.62;100239.63;4979481;28;20284;-74
2021/12/31 09:39:10;;;;;;;7.20;6.57;;;;;;;15.11;59.75;100225.03;4979231;28;20191;-76
2021/12/31 09:41:37;;;;;;;6.10;5.63;;;;;;;15.42;57.24;100228.72;4981473;28;20190;-76
2021/12/31 09:44:03;;;;;;;14.43;7.43;;;;;;;15.02;57.23;100232.41;4998579;28;20641;-73
2021/12/31 09:46:30;;;;;;;7.88;7.15;;;;;;;15.13;62.16;100212.25;4998869;28;20444;-69
2021/12/31 09:48:58;;;;;;;7.17;6.33;;;;;;;14.90;57.79;100218.03;4996593;28;20198;-73
2021/12/31 09:51:26;;;;;;;6.90;6.20;;;;;;;14.84;58.42;100213.50;4996070;28;20198;-73
2021/12/31 09:53:58;;;;;;;6.13;5.73;;;;;;;14.62;58.86;100208.56;4990221;28;20279;-71
2021/12/31 09:56:25;;;;;;;8.80;7.57;;;;;;;14.34;59.55;100197.19;4977238;28;20211;-73
2021/12/31 09:58:52;;;;;;;10.93;8.70;;;;;;;14.23;59.76;100190.59;4977053;28;20254;-71
2021/12/31 10:01:18;;;;;;;5.57;5.07;;;;;;;14.14;58.36;100202.44;4977095;28;20950;-71
2021/12/31 10:03:56;;;;;;;5.83;5.43;;;;;;;14.19;57.53;100194.66;4977383;28;20199;-71
2021/12/31 10:06:25;;;;;;;5.77;5.13;;;;;;;14.17;58.06;100182.53;4977000;28;20641;-72
2021/12/31 10:08:53;;;;;;;5.30;4.90;;;;;;;14.52;56.88;100187.56;4977432;28;20196;-74
2021/12/31 10:11:21;;;;;;;6.40;5.87;;;;;;;14.61;57.48;100177.47;4977349;28;20195;-74
2021/12/31 10:13:55;;;;;;;5.97;5.57;;;;;;;14.67;56.23;100174.00;4977460;28;20191;-71
2021/12/31 10:16:24;;;;;;;4.97;4.67;;;;;;;14.46;57.16;100169.66;4976965;28;20220;-72
2021/12/31 10:19:04;;;;;;;6.60;5.40;;;;;;;14.45;59.76;100157.31;4977380;28;20262;-71
2021/12/31 10:21:38;;;;;;;7.30;6.23;;;;;;;14.76;59.03;100157.53;4977506;28;20290;-68
2021/12/31 10:24:22;;;;;;;7.97;7.27;;;;;;;15.22;59.63;100152.94;4972909;28;20621;-69
2021/12/31 10:26:50;;;;;;;6.17;5.40;;;;;;;15.21;57.44;100145.94;4993292;28;20612;-69
2021/12/31 10:29:17;;;;;;;6.73;4.80;;;;;;;15.21;56.00;100161.16;4990136;28;20678;-73
2021/12/31 10:31:44;;;;;;;13.03;4.87;;;;;;;14.84;55.28;100168.03;4970868;28;20223;-75
2021/12/31 10:34:26;;;;;;;5.07;4.67;;;;;;;14.63;54.77;100160.19;4968359;28;20560;-77
2021/12/31 10:36:54;;;;;;;5.83;4.57;;;;;;;14.65;55.59;100160.81;5097738;22;20237;-73
2021/12/31 10:39:23;;;;;;;8.10;4.60;;;;;;;14.65;56.00;100139.44;5031508;28;20251;-71
2021/12/31 10:42:03;;;;;;;5.00;4.30;;;;;;;14.59;56.28;100142.13;5029803;28;20193;-72
2021/12/31 10:44:47;;;;;;;5.10;4.40;;;;;;;14.64;56.66;100137.78;5030942;28;20193;-71
2021/12/31 10:47:15;;;;;;;6.13;4.23;;;;;;;14.44;58.16;100131.63;5025671;28;20204;-69
2021/12/31 10:50:08;;;;;;;5.70;4.83;;;;;;;14.26;58.34;100136.72;5028053;28;20731;-68
2021/12/31 10:52:39;;;;;;;5.17;4.73;;;;;;;14.72;60.56;100126.88;5029150;28;20194;-72
2021/12/31 10:55:16;;;;;;;8.07;7.13;;;;;;;14.90;56.53;100140.44;5029049;28;20186;-73
2021/12/31 10:57:45;;;;;;;6.13;5.73;;;;;;;14.86;55.93;100136.53;5028233;28;20216;-74
2021/12/31 11:00:18;;;;;;;6.00;5.50;;;;;;;14.77;56.02;100135.09;5187320;22;20291;-72
2021/12/31 11:02:48;;;;;;;9.20;8.00;;;;;;;14.57;57.22;100131.63;5018312;28;20493;-72
2021/12/31 11:05:36;;;;;;;6.87;6.37;;;;;;;14.37;58.19;100124.59;5058648;22;20204;-83
2021/12/31 11:08:28;;;;;;;12.03;5.53;;;;;;;14.08;57.86;100123.13;4969184;28;20203;-72
2021/12/31 11:11:00;;;;;;;5.90;5.40;;;;;;;13.86;60.01;100115.47;4968932;28;20663;-74
2021/12/31 11:13:41;;;;;;;5.37;4.93;;;;;;;14.23;60.09;100107.75;4968470;28;20240;-73
2021/12/31 11:16:47;;;;;;;5.57;5.03;;;;;;;14.32;59.54;100101.19;4972634;28;20356;-71
2021/12/31 11:19:19;;;;;;;5.20;4.23;;;;;;;14.35;58.24;100105.28;4971473;28;20217;-70
2021/12/31 11:21:51;;;;;;;4.63;4.03;;;;;;;14.38;59.16;100113.72;4970223;28;20198;-72
2021/12/31 11:24:39;;;;;;;4.53;4.23;;;;;;;14.58;58.82;100106.53;4972598;28;20204;-72
2021/12/31 11:27:48;;;;;;;4.60;4.30;;;;;;;14.10;59.44;100107.69;4972207;28;20206;-73
2021/12/31 11:30:37;;;;;;;4.20;3.90;;;;;;;14.03;60.34;100104.22;4999334;28;20210;-75
2021/12/31 11:33:14;;;;;;;4.00;3.80;;;;;;;13.94;60.50;100092.06;4996358;28;20286;-78
2021/12/31 11:35:50;;;;;;;4.50;4.20;;;;;;;13.98;61.08;100085.31;4995228;28;20202;-73